Homewood, Illinois
Current Conditions -  °F | °C
As of 10:55 AM on Tuesday 27 Jan 2015 (Local Time) from KIGQ Reporting Station
Overcast Overcast  
Wind Chill: -6°   Ceiling: 3500
Heat Index: -2°   Visibility: 10mi
Dew Point: -8°   Wind: 8mph
Humidity: 65%   Direction: 70°ENE
Pressure: 30.16"   Gusts: NA
Location:  41.56°N, 87.66°W
Report Text: KIGQ 271655Z AUTO 07007KT 10SM BKN035 OVC050 M02/M08 A3016 RMK AO2 T10201077
Loading
Personal Weather Stations






























Interactive Weather Map New forecast layout! Learn more

10-Day Weather Forecast

Advertisements
Track Severe Weather on mobile